Overview Statistics Trail Chart Weather Telemetry Raw packets
 

This is the latest recevied telemetry packets stored in our database for station/object DB4UW-12. If no packets are shown the sender has not sent any telemetry packets the latest 10 day(s).

Telemetry packets is used to share measurements like repeteater parameters, battery voltage, radiation readings (or any other measurements).

<< 1 2 3 4 >>
Time Press* Temp.in* Hum* QNH* Temp.out*
1788580340 959.4 hPa 17.9 C deg 64.1 % 1022.3 hPa 0 C deg
1788578523 958.7 hPa 18.2 C deg 67.7 % 1021.5 hPa 0 C deg
1788573079 957 hPa 18.2 C deg 78.2 % 1019.8 hPa 0 C deg
1788571261 957.1 hPa 18.5 C deg 77.1 % 1019.7 hPa 0 C deg
1788569448 956.8 hPa 18.1 C deg 75 % 1019.5 hPa 0 C deg
1788567658 956.5 hPa 19.5 C deg 70 % 1018.9 hPa 0 C deg
1788565836 956.5 hPa 18.6 C deg 75 % 1019.1 hPa 0 C deg
1788564012 956.1 hPa 18.1 C deg 73 % 1018.8 hPa 0 C deg
1788562197 955.9 hPa 18.7 C deg 70 % 1018.4 hPa 0 C deg
1788560380 955.9 hPa 18.8 C deg 69.8 % 1018.3 hPa 0 C deg
1788558559 955.6 hPa 19 C deg 67.7 % 1018.1 hPa 0 C deg
1788556742 955.5 hPa 19.5 C deg 66.6 % 1017.8 hPa 0 C deg
1788554932 955.5 hPa 19.1 C deg 65.4 % 1017.9 hPa 0 C deg
1788553124 955.5 hPa 19.7 C deg 62.5 % 1017.8 hPa 0 C deg
1788547669 954.7 hPa 20.8 C deg 56.3 % 1016.7 hPa 0 C deg
1788545854 954.5 hPa 21.4 C deg 54.9 % 1016.3 hPa 0 C deg
1788544039 954.2 hPa 22.6 C deg 51.7 % 1015.8 hPa 0 C deg
1788542221 954 hPa 24.5 C deg 48.4 % 1015.1 hPa 0 C deg
1788540408 954 hPa 26.1 C deg 43.5 % 1014.7 hPa 0 C deg
1788538591 954 hPa 27.1 C deg 41.3 % 1014.6 hPa 0 C deg
1788536777 954.1 hPa 27.7 C deg 39.6 % 1014.6 hPa 0 C deg
1788534963 954.3 hPa 27.9 C deg 41.1 % 1014.8 hPa 0 C deg
1788531330 954.8 hPa 28.5 C deg 38.5 % 1015.2 hPa 0 C deg
1788529518 955.1 hPa 28.7 C deg 38.5 % 1015.4 hPa 0 C deg
1788527704 955.3 hPa 28.8 C deg 38.6 % 1015.6 hPa 0 C deg
*Used Equation Coefficients:
Press: 0, 1, 0
Temp.in: 0, 1, 0
Hum: 0, 1, 0
QNH: 0, 1, 0
Temp.out: 0, 1, 0

  • The parameter names for the analog channels will be Value1, Value2, Value3 (up to Value5) if station has not sent a PARAM-packet that specifies the parameter names for each analog channel.
  • Each analog value is a decimal number between 000 and 255 (according to APRS specifications). The receiver use the telemetry equation coefficientsto to restore the original sensor values. If no EQNS-packet with equation coefficients is sent we will show the values as is (this corresponds to the equation coefficients a=0, b=1 and c=0).
    The sent equation coefficients is used in the equation: a * value2 + b * value + c.
  • The units for the analog values will not be shown if station has not sent a UNIT-packet specifying what unit's to use.
  • The parameter names for the digital bits will be Bit1, Bit2, Bit3 (up to Bit8) if station has not sent a PARAM-packet that specifies the parameter names for each digital bit.
  • All bit labels will be named "On" if station has not sent a UNIT-packet that specifies the label of each bit.
  • A bit is considered to be On when the bit is 1 if station has not sent a BITS-packet that specifies another "Bit sense" (a BITS-packet specify the state of the bits that match the BIT labels)